sensor_id;sensor_type;location;lat;lon;timestamp;P1;durP1;ratioP1;P2;durP2;ratioP2
16015;SDS011;8112;53.592;10.184;2023-06-10T00:00:02;9.17;;;4.23;;
16015;SDS011;8112;53.592;10.184;2023-06-10T00:05:12;8.83;;;4.10;;
16015;SDS011;8112;53.592;10.184;2023-06-10T00:10:16;8.13;;;4.57;;
16015;SDS011;8112;53.592;10.184;2023-06-10T00:15:19;7.57;;;4.47;;
16015;SDS011;8112;53.592;10.184;2023-06-10T00:20:21;8.63;;;4.70;;
16015;SDS011;8112;53.592;10.184;2023-06-10T00:25:24;8.10;;;4.30;;
16015;SDS011;8112;53.592;10.184;2023-06-10T00:30:27;7.27;;;4.00;;
16015;SDS011;8112;53.592;10.184;2023-06-10T00:35:29;8.27;;;3.70;;
16015;SDS011;8112;53.592;10.184;2023-06-10T00:40:30;5.00;;;3.53;;
16015;SDS011;8112;53.592;10.184;2023-06-10T00:45:33;7.00;;;3.67;;
16015;SDS011;8112;53.592;10.184;2023-06-10T00:50:35;6.83;;;3.53;;
16015;SDS011;8112;53.592;10.184;2023-06-10T00:55:40;7.37;;;3.40;;
16015;SDS011;8112;53.592;10.184;2023-06-10T01:00:44;6.90;;;3.60;;
16015;SDS011;8112;53.592;10.184;2023-06-10T01:05:46;3.90;;;3.03;;
16015;SDS011;8112;53.592;10.184;2023-06-10T01:10:59;6.07;;;3.40;;
16015;SDS011;8112;53.592;10.184;2023-06-10T01:16:04;8.20;;;3.70;;
16015;SDS011;8112;53.592;10.184;2023-06-10T01:21:06;6.83;;;3.60;;
16015;SDS011;8112;53.592;10.184;2023-06-10T01:26:10;4.43;;;3.50;;
16015;SDS011;8112;53.592;10.184;2023-06-10T01:31:15;5.60;;;3.30;;
16015;SDS011;8112;53.592;10.184;2023-06-10T01:36:22;4.60;;;3.13;;
16015;SDS011;8112;53.592;10.184;2023-06-10T01:41:26;5.63;;;2.90;;
16015;SDS011;8112;53.592;10.184;2023-06-10T01:46:29;7.73;;;3.33;;
16015;SDS011;8112;53.592;10.184;2023-06-10T01:51:31;7.33;;;3.20;;
16015;SDS011;8112;53.592;10.184;2023-06-10T01:56:35;5.53;;;2.77;;
16015;SDS011;8112;53.592;10.184;2023-06-10T02:01:36;5.93;;;3.20;;
16015;SDS011;8112;53.592;10.184;2023-06-10T02:06:38;9.23;;;3.00;;
16015;SDS011;8112;53.592;10.184;2023-06-10T02:11:41;6.17;;;3.20;;
16015;SDS011;8112;53.592;10.184;2023-06-10T02:16:43;5.37;;;2.70;;
16015;SDS011;8112;53.592;10.184;2023-06-10T02:21:46;5.50;;;2.53;;
16015;SDS011;8112;53.592;10.184;2023-06-10T02:26:49;7.57;;;2.60;;
16015;SDS011;8112;53.592;10.184;2023-06-10T02:31:52;4.43;;;2.60;;
16015;SDS011;8112;53.592;10.184;2023-06-10T02:36:54;7.10;;;2.53;;
16015;SDS011;8112;53.592;10.184;2023-06-10T02:41:57;5.97;;;2.43;;
16015;SDS011;8112;53.592;10.184;2023-06-10T02:46:59;6.63;;;3.13;;
16015;SDS011;8112;53.592;10.184;2023-06-10T02:52:01;6.10;;;2.80;;
16015;SDS011;8112;53.592;10.184;2023-06-10T02:57:05;4.07;;;2.30;;
16015;SDS011;8112;53.592;10.184;2023-06-10T03:02:08;3.67;;;2.37;;
16015;SDS011;8112;53.592;10.184;2023-06-10T03:07:17;3.93;;;2.50;;
16015;SDS011;8112;53.592;10.184;2023-06-10T03:12:23;7.30;;;2.40;;
16015;SDS011;8112;53.592;10.184;2023-06-10T03:17:25;3.80;;;1.97;;
16015;SDS011;8112;53.592;10.184;2023-06-10T03:22:27;10.60;;;2.40;;
16015;SDS011;8112;53.592;10.184;2023-06-10T03:27:38;7.23;;;2.57;;
16015;SDS011;8112;53.592;10.184;2023-06-10T03:32:42;4.07;;;2.13;;
16015;SDS011;8112;53.592;10.184;2023-06-10T03:37:46;5.97;;;2.50;;
16015;SDS011;8112;53.592;10.184;2023-06-10T03:42:49;10.97;;;2.50;;
16015;SDS011;8112;53.592;10.184;2023-06-10T03:47:52;4.27;;;2.30;;
16015;SDS011;8112;53.592;10.184;2023-06-10T03:53:00;8.23;;;2.67;;
16015;SDS011;8112;53.592;10.184;2023-06-10T03:58:04;5.50;;;2.30;;
16015;SDS011;8112;53.592;10.184;2023-06-10T04:03:05;4.73;;;2.37;;
16015;SDS011;8112;53.592;10.184;2023-06-10T04:08:12;6.93;;;2.20;;
16015;SDS011;8112;53.592;10.184;2023-06-10T04:13:16;6.23;;;2.10;;
16015;SDS011;8112;53.592;10.184;2023-06-10T04:18:25;7.47;;;1.97;;
16015;SDS011;8112;53.592;10.184;2023-06-10T04:23:30;5.07;;;2.27;;
16015;SDS011;8112;53.592;10.184;2023-06-10T04:28:36;4.63;;;2.30;;
16015;SDS011;8112;53.592;10.184;2023-06-10T04:33:38;5.77;;;1.87;;
16015;SDS011;8112;53.592;10.184;2023-06-10T04:38:40;3.47;;;1.70;;
16015;SDS011;8112;53.592;10.184;2023-06-10T04:43:44;6.87;;;2.27;;
16015;SDS011;8112;53.592;10.184;2023-06-10T04:48:47;4.43;;;2.07;;
16015;SDS011;8112;53.592;10.184;2023-06-10T04:53:48;4.93;;;2.20;;
16015;SDS011;8112;53.592;10.184;2023-06-10T04:58:51;6.10;;;1.80;;
16015;SDS011;8112;53.592;10.184;2023-06-10T05:03:53;7.10;;;2.20;;
16015;SDS011;8112;53.592;10.184;2023-06-10T05:08:55;5.83;;;2.27;;
16015;SDS011;8112;53.592;10.184;2023-06-10T05:13:58;4.73;;;1.83;;
16015;SDS011;8112;53.592;10.184;2023-06-10T05:18:59;5.77;;;2.10;;
16015;SDS011;8112;53.592;10.184;2023-06-10T05:24:01;7.07;;;2.23;;
16015;SDS011;8112;53.592;10.184;2023-06-10T05:29:04;9.00;;;1.70;;
16015;SDS011;8112;53.592;10.184;2023-06-10T05:34:06;6.73;;;2.10;;
16015;SDS011;8112;53.592;10.184;2023-06-10T05:39:08;5.03;;;1.87;;
16015;SDS011;8112;53.592;10.184;2023-06-10T05:44:12;4.83;;;1.60;;
16015;SDS011;8112;53.592;10.184;2023-06-10T05:49:13;3.93;;;1.73;;
16015;SDS011;8112;53.592;10.184;2023-06-10T05:54:15;4.83;;;2.00;;
16015;SDS011;8112;53.592;10.184;2023-06-10T05:59:18;4.77;;;2.07;;
16015;SDS011;8112;53.592;10.184;2023-06-10T06:04:20;6.67;;;1.80;;
16015;SDS011;8112;53.592;10.184;2023-06-10T06:09:21;6.77;;;2.20;;
16015;SDS011;8112;53.592;10.184;2023-06-10T06:14:24;9.13;;;2.33;;
16015;SDS011;8112;53.592;10.184;2023-06-10T06:19:26;5.70;;;2.30;;
16015;SDS011;8112;53.592;10.184;2023-06-10T06:24:28;8.43;;;2.37;;
16015;SDS011;8112;53.592;10.184;2023-06-10T06:29:31;4.90;;;2.10;;
16015;SDS011;8112;53.592;10.184;2023-06-10T06:34:32;6.53;;;2.20;;
16015;SDS011;8112;53.592;10.184;2023-06-10T06:39:34;6.70;;;2.30;;
16015;SDS011;8112;53.592;10.184;2023-06-10T06:44:37;8.60;;;1.90;;
16015;SDS011;8112;53.592;10.184;2023-06-10T06:49:39;5.43;;;2.30;;
16015;SDS011;8112;53.592;10.184;2023-06-10T06:54:41;5.80;;;1.70;;
16015;SDS011;8112;53.592;10.184;2023-06-10T06:59:44;5.43;;;2.00;;
16015;SDS011;8112;53.592;10.184;2023-06-10T07:04:45;6.83;;;2.60;;
16015;SDS011;8112;53.592;10.184;2023-06-10T07:09:49;7.23;;;2.37;;
16015;SDS011;8112;53.592;10.184;2023-06-10T07:14:52;5.87;;;2.03;;
16015;SDS011;8112;53.592;10.184;2023-06-10T07:19:53;6.57;;;2.30;;
16015;SDS011;8112;53.592;10.184;2023-06-10T07:24:57;6.40;;;2.07;;
16015;SDS011;8112;53.592;10.184;2023-06-10T07:30:01;6.70;;;2.47;;
16015;SDS011;8112;53.592;10.184;2023-06-10T07:35:03;7.43;;;2.03;;
16015;SDS011;8112;53.592;10.184;2023-06-10T07:40:05;4.83;;;2.40;;
16015;SDS011;8112;53.592;10.184;2023-06-10T07:45:09;6.60;;;2.50;;
16015;SDS011;8112;53.592;10.184;2023-06-10T07:50:11;5.50;;;2.10;;
16015;SDS011;8112;53.592;10.184;2023-06-10T07:55:13;3.60;;;2.20;;
16015;SDS011;8112;53.592;10.184;2023-06-10T08:00:16;7.07;;;2.40;;
16015;SDS011;8112;53.592;10.184;2023-06-10T08:05:19;11.87;;;2.57;;
16015;SDS011;8112;53.592;10.184;2023-06-10T08:10:21;7.80;;;2.57;;
16015;SDS011;8112;53.592;10.184;2023-06-10T08:15:24;5.10;;;2.43;;
16015;SDS011;8112;53.592;10.184;2023-06-10T08:20:26;7.07;;;2.43;;
16015;SDS011;8112;53.592;10.184;2023-06-10T08:25:28;9.63;;;2.40;;
16015;SDS011;8112;53.592;10.184;2023-06-10T08:30:31;10.53;;;2.53;;
16015;SDS011;8112;53.592;10.184;2023-06-10T08:35:33;16.03;;;2.70;;
16015;SDS011;8112;53.592;10.184;2023-06-10T08:40:35;6.28;;;2.78;;
16015;SDS011;8112;53.592;10.184;2023-06-10T08:45:39;11.15;;;2.63;;
16015;SDS011;8112;53.592;10.184;2023-06-10T08:50:44;6.20;;;2.30;;
16015;SDS011;8112;53.592;10.184;2023-06-10T08:55:49;5.30;;;2.50;;
16015;SDS011;8112;53.592;10.184;2023-06-10T09:00:54;6.47;;;2.55;;
16015;SDS011;8112;53.592;10.184;2023-06-10T09:05:56;6.30;;;2.45;;
16015;SDS011;8112;53.592;10.184;2023-06-10T09:10:58;8.03;;;2.70;;
16015;SDS011;8112;53.592;10.184;2023-06-10T09:16:01;4.68;;;2.50;;
16015;SDS011;8112;53.592;10.184;2023-06-10T09:21:04;8.93;;;2.80;;
16015;SDS011;8112;53.592;10.184;2023-06-10T09:26:08;8.45;;;2.90;;
16015;SDS011;8112;53.592;10.184;2023-06-10T09:31:13;6.90;;;2.63;;
16015;SDS011;8112;53.592;10.184;2023-06-10T09:36:21;6.30;;;2.88;;
16015;SDS011;8112;53.592;10.184;2023-06-10T09:41:25;9.88;;;2.95;;
16015;SDS011;8112;53.592;10.184;2023-06-10T09:46:34;10.55;;;2.75;;
16015;SDS011;8112;53.592;10.184;2023-06-10T09:51:36;9.48;;;3.30;;
16015;SDS011;8112;53.592;10.184;2023-06-10T09:56:38;7.35;;;3.08;;
16015;SDS011;8112;53.592;10.184;2023-06-10T10:01:44;5.35;;;2.47;;
16015;SDS011;8112;53.592;10.184;2023-06-10T10:06:56;7.07;;;3.28;;
16015;SDS011;8112;53.592;10.184;2023-06-10T10:11:59;7.15;;;2.83;;
16015;SDS011;8112;53.592;10.184;2023-06-10T10:17:06;6.97;;;3.17;;
16015;SDS011;8112;53.592;10.184;2023-06-10T10:22:10;5.40;;;3.15;;
16015;SDS011;8112;53.592;10.184;2023-06-10T10:27:20;6.10;;;2.88;;
16015;SDS011;8112;53.592;10.184;2023-06-10T10:32:29;3.38;;;2.67;;
16015;SDS011;8112;53.592;10.184;2023-06-10T10:37:36;6.65;;;3.08;;
16015;SDS011;8112;53.592;10.184;2023-06-10T10:42:37;5.82;;;2.83;;
16015;SDS011;8112;53.592;10.184;2023-06-10T10:47:41;5.13;;;2.67;;
16015;SDS011;8112;53.592;10.184;2023-06-10T10:52:47;4.68;;;3.10;;
16015;SDS011;8112;53.592;10.184;2023-06-10T10:57:54;6.10;;;3.00;;
16015;SDS011;8112;53.592;10.184;2023-06-10T11:03:04;5.35;;;3.08;;
16015;SDS011;8112;53.592;10.184;2023-06-10T11:08:07;8.60;;;2.95;;
16015;SDS011;8112;53.592;10.184;2023-06-10T11:13:12;5.45;;;2.97;;
16015;SDS011;8112;53.592;10.184;2023-06-10T11:18:19;9.68;;;3.28;;
16015;SDS011;8112;53.592;10.184;2023-06-10T11:23:26;6.22;;;2.92;;
16015;SDS011;8112;53.592;10.184;2023-06-10T11:28:32;7.10;;;3.60;;
16015;SDS011;8112;53.592;10.184;2023-06-10T11:33:35;6.93;;;3.22;;
16015;SDS011;8112;53.592;10.184;2023-06-10T11:38:40;7.57;;;3.38;;
16015;SDS011;8112;53.592;10.184;2023-06-10T11:43:42;5.47;;;3.60;;
16015;SDS011;8112;53.592;10.184;2023-06-10T11:48:49;6.43;;;3.42;;
16015;SDS011;8112;53.592;10.184;2023-06-10T11:53:52;7.57;;;4.18;;
16015;SDS011;8112;53.592;10.184;2023-06-10T11:58:56;6.25;;;3.33;;
16015;SDS011;8112;53.592;10.184;2023-06-10T12:04:02;7.55;;;3.38;;
16015;SDS011;8112;53.592;10.184;2023-06-10T12:09:05;9.13;;;3.67;;
16015;SDS011;8112;53.592;10.184;2023-06-10T12:14:07;6.38;;;3.20;;
16015;SDS011;8112;53.592;10.184;2023-06-10T12:19:10;6.28;;;3.35;;
16015;SDS011;8112;53.592;10.184;2023-06-10T12:24:11;6.97;;;4.20;;
16015;SDS011;8112;53.592;10.184;2023-06-10T12:29:17;8.30;;;3.80;;
16015;SDS011;8112;53.592;10.184;2023-06-10T12:34:34;5.82;;;3.17;;
16015;SDS011;8112;53.592;10.184;2023-06-10T12:39:37;7.43;;;3.83;;
16015;SDS011;8112;53.592;10.184;2023-06-10T12:44:39;8.30;;;3.47;;
16015;SDS011;8112;53.592;10.184;2023-06-10T12:49:43;5.78;;;3.42;;
16015;SDS011;8112;53.592;10.184;2023-06-10T12:54:45;6.32;;;3.67;;
16015;SDS011;8112;53.592;10.184;2023-06-10T12:59:46;5.43;;;3.50;;
16015;SDS011;8112;53.592;10.184;2023-06-10T13:04:53;6.30;;;3.53;;
16015;SDS011;8112;53.592;10.184;2023-06-10T13:09:55;8.40;;;3.10;;
16015;SDS011;8112;53.592;10.184;2023-06-10T13:14:57;8.93;;;3.78;;
16015;SDS011;8112;53.592;10.184;2023-06-10T13:20:00;6.70;;;3.13;;
16015;SDS011;8112;53.592;10.184;2023-06-10T13:25:03;6.68;;;3.35;;
16015;SDS011;8112;53.592;10.184;2023-06-10T13:30:07;5.25;;;2.88;;
16015;SDS011;8112;53.592;10.184;2023-06-10T13:35:12;5.63;;;3.25;;
16015;SDS011;8112;53.592;10.184;2023-06-10T13:40:14;11.95;;;3.13;;
16015;SDS011;8112;53.592;10.184;2023-06-10T13:45:15;7.93;;;2.80;;
16015;SDS011;8112;53.592;10.184;2023-06-10T13:50:19;12.38;;;3.00;;
16015;SDS011;8112;53.592;10.184;2023-06-10T13:55:21;8.13;;;2.92;;
16015;SDS011;8112;53.592;10.184;2023-06-10T14:00:24;5.03;;;2.55;;
16015;SDS011;8112;53.592;10.184;2023-06-10T14:05:28;9.55;;;2.88;;
16015;SDS011;8112;53.592;10.184;2023-06-10T14:10:30;8.15;;;3.20;;
16015;SDS011;8112;53.592;10.184;2023-06-10T14:15:32;4.45;;;2.70;;
16015;SDS011;8112;53.592;10.184;2023-06-10T14:20:35;6.65;;;2.65;;
16015;SDS011;8112;53.592;10.184;2023-06-10T14:25:37;7.13;;;2.92;;
16015;SDS011;8112;53.592;10.184;2023-06-10T14:30:38;6.65;;;2.85;;
16015;SDS011;8112;53.592;10.184;2023-06-10T14:35:41;6.80;;;2.63;;
16015;SDS011;8112;53.592;10.184;2023-06-10T14:40:44;8.00;;;2.90;;
16015;SDS011;8112;53.592;10.184;2023-06-10T14:45:45;8.80;;;3.08;;
16015;SDS011;8112;53.592;10.184;2023-06-10T14:50:48;5.95;;;2.90;;
16015;SDS011;8112;53.592;10.184;2023-06-10T14:55:51;8.80;;;2.97;;
16015;SDS011;8112;53.592;10.184;2023-06-10T15:00:52;8.85;;;3.22;;
16015;SDS011;8112;53.592;10.184;2023-06-10T15:05:55;9.10;;;3.00;;
16015;SDS011;8112;53.592;10.184;2023-06-10T15:10:57;11.27;;;3.10;;
16015;SDS011;8112;53.592;10.184;2023-06-10T15:16:01;8.02;;;3.05;;
16015;SDS011;8112;53.592;10.184;2023-06-10T15:21:04;9.73;;;2.63;;
16015;SDS011;8112;53.592;10.184;2023-06-10T15:26:06;6.47;;;2.80;;
16015;SDS011;8112;53.592;10.184;2023-06-10T15:31:07;9.43;;;3.08;;
16015;SDS011;8112;53.592;10.184;2023-06-10T15:36:10;7.40;;;3.03;;
16015;SDS011;8112;53.592;10.184;2023-06-10T15:41:13;8.52;;;3.13;;
16015;SDS011;8112;53.592;10.184;2023-06-10T15:46:15;7.30;;;3.42;;
16015;SDS011;8112;53.592;10.184;2023-06-10T15:51:18;6.85;;;2.72;;
16015;SDS011;8112;53.592;10.184;2023-06-10T15:56:20;8.15;;;3.25;;
16015;SDS011;8112;53.592;10.184;2023-06-10T16:01:22;7.28;;;3.00;;
16015;SDS011;8112;53.592;10.184;2023-06-10T16:06:25;4.25;;;2.50;;
16015;SDS011;8112;53.592;10.184;2023-06-10T16:11:27;4.68;;;2.65;;
16015;SDS011;8112;53.592;10.184;2023-06-10T16:16:29;8.35;;;2.80;;
16015;SDS011;8112;53.592;10.184;2023-06-10T16:21:32;10.95;;;2.90;;
16015;SDS011;8112;53.592;10.184;2023-06-10T16:26:33;9.13;;;2.58;;
16015;SDS011;8112;53.592;10.184;2023-06-10T16:31:35;12.50;;;3.35;;
16015;SDS011;8112;53.592;10.184;2023-06-10T16:36:38;5.28;;;2.95;;
16015;SDS011;8112;53.592;10.184;2023-06-10T16:41:40;9.40;;;3.08;;
16015;SDS011;8112;53.592;10.184;2023-06-10T16:46:42;11.02;;;3.30;;
16015;SDS011;8112;53.592;10.184;2023-06-10T16:51:45;11.75;;;3.25;;
16015;SDS011;8112;53.592;10.184;2023-06-10T16:56:47;6.75;;;2.53;;
16015;SDS011;8112;53.592;10.184;2023-06-10T17:01:49;9.73;;;3.20;;
16015;SDS011;8112;53.592;10.184;2023-06-10T17:06:52;5.72;;;2.50;;
16015;SDS011;8112;53.592;10.184;2023-06-10T17:11:54;8.40;;;3.00;;
16015;SDS011;8112;53.592;10.184;2023-06-10T17:16:55;7.70;;;3.22;;
16015;SDS011;8112;53.592;10.184;2023-06-10T17:22:00;8.70;;;3.10;;
16015;SDS011;8112;53.592;10.184;2023-06-10T17:27:02;10.25;;;3.50;;
16015;SDS011;8112;53.592;10.184;2023-06-10T17:32:06;5.00;;;2.60;;
16015;SDS011;8112;53.592;10.184;2023-06-10T17:37:09;8.00;;;2.80;;
16015;SDS011;8112;53.592;10.184;2023-06-10T17:42:11;8.20;;;3.08;;
16015;SDS011;8112;53.592;10.184;2023-06-10T17:47:13;6.32;;;2.70;;
16015;SDS011;8112;53.592;10.184;2023-06-10T17:52:16;7.03;;;3.65;;
16015;SDS011;8112;53.592;10.184;2023-06-10T17:57:17;6.93;;;2.93;;
16015;SDS011;8112;53.592;10.184;2023-06-10T18:02:19;10.05;;;3.40;;
16015;SDS011;8112;53.592;10.184;2023-06-10T18:07:22;5.77;;;3.10;;
16015;SDS011;8112;53.592;10.184;2023-06-10T18:12:24;8.20;;;3.15;;
16015;SDS011;8112;53.592;10.184;2023-06-10T18:17:25;6.80;;;3.47;;
16015;SDS011;8112;53.592;10.184;2023-06-10T18:22:29;9.70;;;3.20;;
16015;SDS011;8112;53.592;10.184;2023-06-10T18:27:30;9.67;;;3.37;;
16015;SDS011;8112;53.592;10.184;2023-06-10T18:32:32;8.03;;;3.10;;
16015;SDS011;8112;53.592;10.184;2023-06-10T18:37:35;9.73;;;3.33;;
16015;SDS011;8112;53.592;10.184;2023-06-10T18:42:37;9.83;;;2.90;;
16015;SDS011;8112;53.592;10.184;2023-06-10T18:47:39;8.97;;;3.30;;
16015;SDS011;8112;53.592;10.184;2023-06-10T18:52:42;10.30;;;2.90;;
16015;SDS011;8112;53.592;10.184;2023-06-10T18:57:43;6.40;;;3.23;;
16015;SDS011;8112;53.592;10.184;2023-06-10T19:02:45;7.73;;;3.37;;
16015;SDS011;8112;53.592;10.184;2023-06-10T19:07:48;7.63;;;3.10;;
16015;SDS011;8112;53.592;10.184;2023-06-10T19:12:50;8.87;;;3.50;;
16015;SDS011;8112;53.592;10.184;2023-06-10T19:17:52;6.63;;;2.90;;
16015;SDS011;8112;53.592;10.184;2023-06-10T19:22:55;9.47;;;3.17;;
16015;SDS011;8112;53.592;10.184;2023-06-10T19:27:56;7.27;;;3.27;;
16015;SDS011;8112;53.592;10.184;2023-06-10T19:32:58;9.10;;;3.73;;
16015;SDS011;8112;53.592;10.184;2023-06-10T19:38:01;8.87;;;3.23;;
16015;SDS011;8112;53.592;10.184;2023-06-10T19:43:03;4.80;;;2.77;;
16015;SDS011;8112;53.592;10.184;2023-06-10T19:48:05;5.13;;;2.70;;
16015;SDS011;8112;53.592;10.184;2023-06-10T19:53:08;4.40;;;2.87;;
16015;SDS011;8112;53.592;10.184;2023-06-10T19:58:10;5.83;;;2.50;;
16015;SDS011;8112;53.592;10.184;2023-06-10T20:03:12;4.43;;;2.87;;
16015;SDS011;8112;53.592;10.184;2023-06-10T20:08:15;5.60;;;3.23;;
16015;SDS011;8112;53.592;10.184;2023-06-10T20:13:16;8.30;;;2.80;;
16015;SDS011;8112;53.592;10.184;2023-06-10T20:18:18;12.33;;;3.00;;
16015;SDS011;8112;53.592;10.184;2023-06-10T20:23:22;5.37;;;2.33;;
16015;SDS011;8112;53.592;10.184;2023-06-10T20:28:23;5.73;;;2.47;;
16015;SDS011;8112;53.592;10.184;2023-06-10T20:33:25;5.17;;;2.50;;
16015;SDS011;8112;53.592;10.184;2023-06-10T20:38:28;6.07;;;2.60;;
16015;SDS011;8112;53.592;10.184;2023-06-10T20:43:30;5.07;;;2.70;;
16015;SDS011;8112;53.592;10.184;2023-06-10T20:48:32;3.73;;;2.43;;
16015;SDS011;8112;53.592;10.184;2023-06-10T20:53:35;8.80;;;2.90;;
16015;SDS011;8112;53.592;10.184;2023-06-10T20:58:37;12.87;;;2.87;;
16015;SDS011;8112;53.592;10.184;2023-06-10T21:03:38;4.67;;;2.13;;
16015;SDS011;8112;53.592;10.184;2023-06-10T21:08:41;5.83;;;2.50;;
16015;SDS011;8112;53.592;10.184;2023-06-10T21:13:43;5.90;;;2.27;;
16015;SDS011;8112;53.592;10.184;2023-06-10T21:18:45;7.40;;;2.50;;
16015;SDS011;8112;53.592;10.184;2023-06-10T21:23:48;4.90;;;1.90;;
16015;SDS011;8112;53.592;10.184;2023-06-10T21:28:50;4.10;;;2.00;;
16015;SDS011;8112;53.592;10.184;2023-06-10T21:33:51;7.97;;;2.10;;
16015;SDS011;8112;53.592;10.184;2023-06-10T21:38:55;5.63;;;2.17;;
16015;SDS011;8112;53.592;10.184;2023-06-10T21:43:56;7.17;;;2.20;;
16015;SDS011;8112;53.592;10.184;2023-06-10T21:48:58;4.47;;;2.20;;
16015;SDS011;8112;53.592;10.184;2023-06-10T21:54:03;4.90;;;2.40;;
16015;SDS011;8112;53.592;10.184;2023-06-10T21:59:06;3.70;;;1.90;;
16015;SDS011;8112;53.592;10.184;2023-06-10T22:04:07;5.43;;;2.00;;
16015;SDS011;8112;53.592;10.184;2023-06-10T22:09:11;4.17;;;2.00;;
16015;SDS011;8112;53.592;10.184;2023-06-10T22:14:12;4.27;;;1.90;;
16015;SDS011;8112;53.592;10.184;2023-06-10T22:19:14;5.80;;;1.90;;
16015;SDS011;8112;53.592;10.184;2023-06-10T22:24:17;5.73;;;2.10;;
16015;SDS011;8112;53.592;10.184;2023-06-10T22:29:19;2.97;;;1.80;;
16015;SDS011;8112;53.592;10.184;2023-06-10T22:34:21;3.30;;;1.90;;
16015;SDS011;8112;53.592;10.184;2023-06-10T22:39:24;4.37;;;1.73;;
16015;SDS011;8112;53.592;10.184;2023-06-10T22:44:26;4.27;;;1.77;;
16015;SDS011;8112;53.592;10.184;2023-06-10T22:49:27;5.60;;;1.90;;
16015;SDS011;8112;53.592;10.184;2023-06-10T22:54:31;4.23;;;1.80;;
16015;SDS011;8112;53.592;10.184;2023-06-10T22:59:32;7.30;;;1.90;;
16015;SDS011;8112;53.592;10.184;2023-06-10T23:04:34;8.17;;;1.80;;
16015;SDS011;8112;53.592;10.184;2023-06-10T23:09:37;3.57;;;1.87;;
16015;SDS011;8112;53.592;10.184;2023-06-10T23:14:39;5.63;;;1.97;;
16015;SDS011;8112;53.592;10.184;2023-06-10T23:19:40;2.90;;;1.90;;
16015;SDS011;8112;53.592;10.184;2023-06-10T23:24:44;4.77;;;1.90;;
16015;SDS011;8112;53.592;10.184;2023-06-10T23:29:46;8.40;;;2.00;;
16015;SDS011;8112;53.592;10.184;2023-06-10T23:34:48;7.47;;;1.87;;
16015;SDS011;8112;53.592;10.184;2023-06-10T23:39:51;4.43;;;1.83;;
16015;SDS011;8112;53.592;10.184;2023-06-10T23:44:54;6.20;;;1.60;;
16015;SDS011;8112;53.592;10.184;2023-06-10T23:49:55;2.97;;;1.60;;
16015;SDS011;8112;53.592;10.184;2023-06-10T23:54:58;4.90;;;1.90;;
